Bodega Marine Reserve, California Weather observations

Data are for 10 minute period ending at time listed.
 Day   Time   Solar   Ave.   Ave.  Ave.  Vector  Max.   Baro.   Total    
  of    of     Rad.   Air    Rel.  Wind   Wind   Wind  Press.  Precip.   
Year   Day            Temp.  Hum.  Speed  Dir.   Gust                    
2016   (PST)  Kw/m2    F      %     mph   deg.    mph    mb.     in.     
-------------------------------------------------------------------------
 344   16:10   0.12   55.0    97    8.4   142    10.5   1019.3    0.00 
 344   16:20   0.10   55.1    97    8.0   148    10.7   1019.3    0.00 
 344   16:30   0.06   54.8    97    8.8   147    12.0   1019.3    0.00 
 344   16:40   0.11   54.7    97    8.8   148    11.7   1019.0    0.00 
 344   16:50   0.09   55.1    97    8.1   156    12.7   1019.0    0.00 
 344   17:00   0.07   55.0    97   10.1   151    13.5   1019.0    0.00 
 344   17:10   0.06   54.9    97   10.2   149    14.0   1018.6    0.00 
 344   17:20   0.04   54.7    96   12.0   151    16.6   1018.6    0.00 
 344   17:30   0.02   54.6    97   11.4   152    15.8   1018.6    0.00 
 344   17:40   0.01   54.6    96   11.1   151    15.3   1018.6    0.00 
 344   17:50   0.00   54.6    97   10.2   155    15.1   1018.6    0.00 
 344   18:00   0.00   54.6    97   10.9   155    16.1   1018.6    0.00 
 344   18:10   0.00   54.5    97   11.3   152    14.9   1018.6    0.00 
 344   18:20   0.00   54.4    97   11.0   151    14.4   1018.6    0.00 
 344   18:30   0.00   54.3    97   10.0   153    13.4   1018.6    0.00 
 344   18:40   0.00   54.3    97   10.3   151    14.8   1018.3    0.00 
 344   18:50   0.00   54.1    97   10.4   146    14.0   1018.3    0.00 
 344   19:00   0.00   53.9    97    9.3   145    12.9   1018.3    0.00 
 344   19:10   0.00   53.9    97   10.6   141    14.2   1018.3    0.00 
 344   19:20   0.00   53.8    97    9.9   131    12.8   1018.0    0.00 
 344   19:30   0.00   53.8    97    6.9   128    12.2   1018.0    0.00 
 344   19:40   0.00   53.6    97    6.0   141     9.8   1018.0    0.00 
 344   19:50   0.00   54.1    97    7.6   142     9.6   1018.0    0.00 
 344   20:00   0.00   54.3    97    7.5   136     9.6   1018.0    0.00 
 344   20:10   0.00   54.0    97    6.9   132     8.3   1017.6    0.00 
 344   20:20   0.00   53.7    97    6.6   133     8.6   1017.6    0.00 
 344   20:30   0.00   54.0    97    8.8   138    12.9   1017.6    0.00 
 344   20:40   0.00   54.2    97    9.2   139    12.5   1017.6    0.00 
 344   20:50   0.00   54.5    97    9.8   147    13.3   1017.6    0.00 
 344   21:00   0.00   54.5    97    9.0   144    13.1   1017.3    0.00 
 344   21:10   0.00   54.6    97   10.6   146    14.2   1017.6    0.00 
 344   21:20   0.00   54.7    97    9.4   145    13.8   1017.6    0.00 
 344   21:30   0.00   54.7    97    9.6   147    14.7   1017.3    0.00 
 344   21:40   0.00   54.5    97   11.5   140    14.8   1017.3    0.00 
 344   21:50   0.00   54.3    97   11.2   143    15.3   1016.9    0.00 
 344   22:00   0.00   54.4    97   12.5   148    16.7   1016.9    0.02 
 344   22:10   0.00   54.5    97   12.1   145    16.4   1016.9    0.02 
 344   22:20   0.00   54.4    97   12.7   145    18.9   1016.9    0.01 
 344   22:30   0.00   54.5    97   14.5   148    18.6   1016.6    0.00 
 344   22:40   0.00   54.5    97   13.7   148    20.7   1016.6    0.01 
 344   22:50   0.00   54.5    97   14.5   150    21.3   1016.6    0.00 
 344   23:00   0.00   54.5    97   13.9   148    20.2   1016.6    0.00 
 344   23:10   0.00   54.6    97   13.3   150    19.2   1016.3    0.01 
 344   23:20   0.00   54.8    97   13.4   153    20.5   1016.3    0.01 
 344   23:30   0.00   54.8    97   12.5   155    17.3   1016.3    0.00 
 344   23:40   0.00   54.9    97   12.4   158    18.7   1016.3    0.00 
 344   23:50   0.00   55.1    97   14.6   161    23.2   1016.3    0.00 
 345    0:00   0.00   55.3    97   14.8   164    21.8   1016.3    0.00 
 345    0:10   0.00   55.3    97   15.6   168    23.8   1016.3    0.01 
 345    0:20   0.00   55.2    97   15.8   167    21.7   1016.3    0.00 
 345    0:30   0.00   55.2    97   14.8   168    22.0   1016.3    0.00 
 345    0:40   0.00   55.3    97   14.2   168    21.3   1016.3    0.00 
 345    0:50   0.00   55.4    97   14.9   172    23.7   1015.9    0.00 
 345    1:00   0.00   55.2    97   14.8   167    23.5   1015.9    0.00 
 345    1:10   0.00   55.3    97   13.2   171    19.9   1015.9    0.00 
 345    1:20   0.00   55.6    97   10.7   185    21.6   1015.9    0.00 
 345    1:30   0.00   56.0    97   13.0   189    21.8   1015.9    0.01 
 345    1:40   0.00   55.9    97   10.9   191    17.6   1015.9    0.00 
 345    1:50   0.00   56.0    97   10.2   194    16.8   1015.6    0.00 
 345    2:00   0.00   55.9    97   10.6   193    17.7   1015.6    0.00 
 345    2:10   0.00   55.8    97    9.4   202    16.4   1015.6    0.00 
 345    2:20   0.00   56.0    97   15.0   208    20.6   1015.6    0.00 
 345    2:30   0.00   55.9    97    9.7   209    18.0   1015.6    0.00 
 345    2:40   0.00   55.7    97    7.8   212    14.6   1015.9    0.00 
 345    2:50   0.00   55.5    97    7.2   222    14.8   1015.9    0.00 
 345    3:00   0.00   55.6    97    9.0   224    19.4   1015.9    0.00 
 345    3:10   0.00   55.6    97   10.6   226    16.7   1015.9    0.00 
 345    3:20   0.00   55.7    97   10.7   226    17.8   1015.9    0.00 
 345    3:30   0.00   55.7    97    9.9   226    17.0   1015.9    0.00 
 345    3:40   0.00   55.8    97   11.0   221    18.5   1015.6    0.00 
 345    3:50   0.00   55.7    97    9.4   222    15.5   1015.6    0.00 
 345    4:00   0.00   55.6    97    9.1   216    16.7   1015.6    0.00 
 345    4:10   0.00   55.6    97   11.2   220    18.1   1015.6    0.00 
 345    4:20   0.00   55.4    97   11.4   225    18.9   1015.6    0.00 
 345    4:30   0.00   55.3    97    8.7   224    15.9   1015.6    0.00 
 345    4:40   0.00   55.3    97    9.9   225    17.8   1015.6    0.00 
 345    4:50   0.00   55.2    97    9.3   229    17.2   1015.6    0.00 
 345    5:00   0.00   55.2    97   11.3   223    18.6   1015.6    0.00 
 345    5:10   0.00   55.3    97    9.2   224    16.1   1015.2    0.00 
 345    5:20   0.00   55.3    97    9.9   226    16.8   1015.2    0.00 
 345    5:30   0.00   55.3    97   11.2   233    18.5   1015.2    0.00 
 345    5:40   0.00   55.3    97   10.6   229    17.4   1014.9    0.00 
 345    5:50   0.00   55.3    97   11.4   224    19.0   1014.9    0.00 
 345    6:00   0.00   55.2    97   10.6   221    18.9   1014.9    0.00 
 345    6:10   0.00   55.3    97   10.4   221    16.8   1014.9    0.00 
 345    6:20   0.00   55.3    97   11.6   223    17.9   1014.9    0.00 
 345    6:30   0.00   55.3    97   10.5   223    16.3   1014.6    0.00 
 345    6:40   0.00   55.3    97    9.4   223    15.6   1014.9    0.00 
 345    6:50   0.00   55.3    97   10.0   221    17.2   1014.9    0.02 
 345    7:00   0.00   55.3    97   11.2   220    17.5   1014.9    0.12 
 345    7:10   0.00   55.3    98    8.4   215    14.9   1014.9    0.07 
 345    7:20   0.00   55.3    98   10.1   211    16.9   1014.9    0.01 
 345    7:30   0.00   55.3    98    9.6   214    15.3   1014.9    0.01 
 345    7:40   0.00   55.3    98    9.7   215    15.9   1014.9    0.03 
 345    7:50   0.00   55.3    98   10.5   215    18.6   1014.9    0.01 
 345    8:00   0.00   55.3    98   10.2   211    16.1   1014.9    0.00 
 345    8:10   0.00   55.3    98    8.9   217    15.0   1014.9    0.00 
 345    8:20   0.00   55.3    98    9.0   220    16.2   1014.9    0.00 
 345    8:30   0.00   55.3    98    9.5   213    16.0   1014.9    0.00 
 345    8:40   0.00   55.3    98   10.6   207    17.2   1014.9    0.00 
 345    8:50   0.00   55.2    98    8.1   216    13.9   1015.2    0.02 
 345    9:00   0.00   55.2    98    8.3   220    15.3   1015.2    0.00 
 345    9:10   0.00   55.3    98    7.4   213    12.9   1015.2    0.00 
 345    9:20   0.01   55.2    98    8.2   224    14.5   1015.2    0.01 
 345    9:30   0.01   55.0    97    6.3   242    11.7   1015.2    0.00 
 345    9:40   0.01   55.2    98    6.5   217    11.1   1015.6    0.00 
 345    9:50   0.01   55.3    98    6.0   217    12.3   1015.6    0.00 
 345   10:00   0.01   55.3    98    6.5   218    11.5   1015.6    0.00 
 345   10:10   0.01   55.3    98    7.1   214    12.4   1015.9    0.00 
 345   10:20   0.02   55.3    98    5.8   213     9.0   1015.9    0.01 
 345   10:30   0.02   55.3    98    6.3   207    10.2   1015.9    0.00 
 345   10:40   0.02   55.3    98    4.9   214     9.7   1015.9    0.00 
 345   10:50   0.03   55.2    98    5.1   222    10.7   1015.9    0.01 
 345   11:00   0.03   55.4    98    4.7   213     8.5   1016.3    0.00 
 345   11:10   0.03   55.6    98    5.6   218    10.1   1016.3    0.00 
 345   11:20   0.03   55.4    98    6.2   214    11.5   1016.3    0.00 
 345   11:30   0.03   55.3    98    6.2   223    10.5   1016.3    0.00 
 345   11:40   0.03   55.4    98    7.1   231    11.8   1016.3    0.00 
 345   11:50   0.03   55.3    98    7.2   235    10.9   1016.3    0.00 
 345   12:00   0.04   55.3    98    7.7   237    11.8   1016.3    0.00 
 345   12:10   0.04   55.3    98    8.1   249    11.9   1015.9    0.00 
 345   12:20   0.03   55.1    98    9.1   258    12.2   1016.3    0.00 
 345   12:30   0.05   54.7    98    8.9   275    11.8   1015.9    0.00 
 345   12:40   0.06   54.5    98    8.7   292    12.3   1015.9    0.01 
 345   12:50   0.06   54.1    98    8.7   296    11.5   1015.6    0.00 
 345   13:00   0.07   53.9    98    7.9   292    10.7   1015.6    0.00 
 345   13:10   0.07   53.7    98    7.1   299    10.0   1015.2    0.00 
 345   13:20   0.08   53.7    98    7.9   305    10.2   1015.2    0.00 
 345   13:30   0.06   53.5    98    7.0   306     9.1   1014.9    0.00 
 345   13:40   0.07   53.4    98    5.5   301     7.4   1014.9    0.00 
 345   13:50   0.06   53.5    98    6.7   308     9.0   1014.9    0.00 
 345   14:00   0.07   53.6    98    6.2   320     8.8   1014.9    0.00 
 345   14:10   0.10   54.2    98    6.2   317     8.9   1014.6    0.00 
 345   14:20   0.10   54.8    98    6.5   310     8.1   1014.6    0.00 
 345   14:30   0.08   54.2    98    7.0   302     9.6   1014.6    0.00 
 345   14:40   0.09   53.9    98    5.0   303     8.1   1014.2    0.00 
 345   14:50   0.09   53.9    98    6.4   296     9.4   1014.6    0.00 
 345   15:00   0.08   53.9    98    7.4   301    10.0   1014.6    0.00 
 345   15:10   0.07   54.0    98    6.2   306     8.7   1014.6    0.00 
 345   15:20   0.07   54.0    98    5.8   308     8.5   1014.6    0.00 
 345   15:30   0.10   53.9    98    5.9   307     8.0   1014.6    0.00 
 345   15:40   0.08   53.8    98    6.5   314     9.3   1014.6    0.00 
 345   15:50   0.07   54.0    98    6.0   299     8.4   1014.6    0.00 
 345   16:00   0.07   54.1    98    3.3   297     5.7   1014.6    0.00 

Return to Bodega Marine Reserve graphs page.


Western Regional Climate Center,wrcc@dri.edu